sensor_id;sensor_type;location;lat;lon;timestamp;P1;durP1;ratioP1;P2;durP2;ratioP2
36385;SDS011;24125;47.482;8.770;2022-09-21T00:00:57;5.82;;;1.60;;
36385;SDS011;24125;47.482;8.770;2022-09-21T00:03:37;3.30;;;1.40;;
36385;SDS011;24125;47.482;8.770;2022-09-21T00:06:13;1.75;;;1.08;;
36385;SDS011;24125;47.482;8.770;2022-09-21T00:08:48;1.70;;;1.20;;
36385;SDS011;24125;47.482;8.770;2022-09-21T00:11:22;3.50;;;1.30;;
36385;SDS011;24125;47.482;8.770;2022-09-21T00:13:57;2.20;;;1.38;;
36385;SDS011;24125;47.482;8.770;2022-09-21T00:16:34;1.73;;;1.23;;
36385;SDS011;24125;47.482;8.770;2022-09-21T00:19:07;1.73;;;1.15;;
36385;SDS011;24125;47.482;8.770;2022-09-21T00:21:42;2.38;;;1.55;;
36385;SDS011;24125;47.482;8.770;2022-09-21T00:24:15;2.13;;;1.48;;
36385;SDS011;24125;47.482;8.770;2022-09-21T00:26:48;3.38;;;1.30;;
36385;SDS011;24125;47.482;8.770;2022-09-21T00:29:21;3.13;;;1.20;;
36385;SDS011;24125;47.482;8.770;2022-09-21T00:31:54;3.67;;;1.40;;
36385;SDS011;24125;47.482;8.770;2022-09-21T00:34:27;4.03;;;1.58;;
36385;SDS011;24125;47.482;8.770;2022-09-21T00:37:02;5.30;;;1.92;;
36385;SDS011;24125;47.482;8.770;2022-09-21T00:39:35;3.45;;;1.42;;
36385;SDS011;24125;47.482;8.770;2022-09-21T00:42:09;2.55;;;1.40;;
36385;SDS011;24125;47.482;8.770;2022-09-21T00:44:48;3.60;;;1.65;;
36385;SDS011;24125;47.482;8.770;2022-09-21T00:47:22;3.97;;;1.67;;
36385;SDS011;24125;47.482;8.770;2022-09-21T00:49:59;2.38;;;1.58;;
36385;SDS011;24125;47.482;8.770;2022-09-21T00:52:38;3.65;;;2.00;;
36385;SDS011;24125;47.482;8.770;2022-09-21T00:55:14;3.70;;;1.90;;
36385;SDS011;24125;47.482;8.770;2022-09-21T00:57:52;4.18;;;1.88;;
36385;SDS011;24125;47.482;8.770;2022-09-21T01:00:28;3.85;;;1.83;;
36385;SDS011;24125;47.482;8.770;2022-09-21T01:03:02;3.28;;;1.77;;
36385;SDS011;24125;47.482;8.770;2022-09-21T01:05:36;3.15;;;1.58;;
36385;SDS011;24125;47.482;8.770;2022-09-21T01:08:11;3.20;;;2.00;;
36385;SDS011;24125;47.482;8.770;2022-09-21T01:10:56;5.03;;;1.70;;
36385;SDS011;24125;47.482;8.770;2022-09-21T01:13:45;4.22;;;1.63;;
36385;SDS011;24125;47.482;8.770;2022-09-21T01:16:31;5.15;;;1.85;;
36385;SDS011;24125;47.482;8.770;2022-09-21T01:19:14;3.53;;;1.80;;
36385;SDS011;24125;47.482;8.770;2022-09-21T01:22:05;3.95;;;1.60;;
36385;SDS011;24125;47.482;8.770;2022-09-21T01:24:50;3.80;;;1.95;;
36385;SDS011;24125;47.482;8.770;2022-09-21T01:27:41;5.97;;;1.98;;
36385;SDS011;24125;47.482;8.770;2022-09-21T01:30:26;3.47;;;1.90;;
36385;SDS011;24125;47.482;8.770;2022-09-21T01:33:03;4.25;;;1.90;;
36385;SDS011;24125;47.482;8.770;2022-09-21T01:35:43;7.57;;;2.20;;
36385;SDS011;24125;47.482;8.770;2022-09-21T01:38:24;3.35;;;2.08;;
36385;SDS011;24125;47.482;8.770;2022-09-21T01:41:01;3.83;;;2.10;;
36385;SDS011;24125;47.482;8.770;2022-09-21T01:43:37;2.92;;;1.50;;
36385;SDS011;24125;47.482;8.770;2022-09-21T01:46:18;3.22;;;2.05;;
36385;SDS011;24125;47.482;8.770;2022-09-21T01:48:53;6.95;;;2.17;;
36385;SDS011;24125;47.482;8.770;2022-09-21T01:51:38;3.15;;;1.70;;
36385;SDS011;24125;47.482;8.770;2022-09-21T01:54:16;3.28;;;1.90;;
36385;SDS011;24125;47.482;8.770;2022-09-21T01:56:58;5.57;;;2.03;;
36385;SDS011;24125;47.482;8.770;2022-09-21T01:59:41;3.80;;;1.77;;
36385;SDS011;24125;47.482;8.770;2022-09-21T02:02:23;5.00;;;2.00;;
36385;SDS011;24125;47.482;8.770;2022-09-21T02:05:00;3.47;;;1.92;;
36385;SDS011;24125;47.482;8.770;2022-09-21T02:07:34;3.55;;;1.88;;
36385;SDS011;24125;47.482;8.770;2022-09-21T02:10:11;3.45;;;1.40;;
36385;SDS011;24125;47.482;8.770;2022-09-21T02:12:48;4.07;;;1.88;;
36385;SDS011;24125;47.482;8.770;2022-09-21T02:15:31;6.05;;;1.90;;
36385;SDS011;24125;47.482;8.770;2022-09-21T02:18:12;5.43;;;2.00;;
36385;SDS011;24125;47.482;8.770;2022-09-21T02:20:59;2.08;;;1.65;;
36385;SDS011;24125;47.482;8.770;2022-09-21T02:23:40;4.30;;;2.03;;
36385;SDS011;24125;47.482;8.770;2022-09-21T02:26:21;4.32;;;1.90;;
36385;SDS011;24125;47.482;8.770;2022-09-21T02:29:00;4.05;;;1.67;;
36385;SDS011;24125;47.482;8.770;2022-09-21T02:31:45;3.17;;;2.10;;
36385;SDS011;24125;47.482;8.770;2022-09-21T02:34:23;3.58;;;1.80;;
36385;SDS011;24125;47.482;8.770;2022-09-21T02:37:04;4.50;;;1.50;;
36385;SDS011;24125;47.482;8.770;2022-09-21T02:39:44;3.05;;;1.80;;
36385;SDS011;24125;47.482;8.770;2022-09-21T02:42:27;4.50;;;2.15;;
36385;SDS011;24125;47.482;8.770;2022-09-21T02:45:05;2.72;;;1.90;;
36385;SDS011;24125;47.482;8.770;2022-09-21T02:47:45;4.40;;;1.60;;
36385;SDS011;24125;47.482;8.770;2022-09-21T02:50:23;3.03;;;1.80;;
36385;SDS011;24125;47.482;8.770;2022-09-21T02:53:07;3.13;;;1.35;;
36385;SDS011;24125;47.482;8.770;2022-09-21T02:55:42;2.28;;;1.80;;
36385;SDS011;24125;47.482;8.770;2022-09-21T02:58:17;3.35;;;1.67;;
36385;SDS011;24125;47.482;8.770;2022-09-21T03:00:53;2.97;;;1.70;;
36385;SDS011;24125;47.482;8.770;2022-09-21T03:03:28;4.47;;;1.75;;
36385;SDS011;24125;47.482;8.770;2022-09-21T03:06:03;3.20;;;1.90;;
36385;SDS011;24125;47.482;8.770;2022-09-21T03:08:36;6.13;;;1.75;;
36385;SDS011;24125;47.482;8.770;2022-09-21T03:11:09;3.22;;;1.92;;
36385;SDS011;24125;47.482;8.770;2022-09-21T03:13:42;4.40;;;2.05;;
36385;SDS011;24125;47.482;8.770;2022-09-21T03:16:15;6.45;;;2.08;;
36385;SDS011;24125;47.482;8.770;2022-09-21T03:18:50;3.03;;;1.73;;
36385;SDS011;24125;47.482;8.770;2022-09-21T03:21:24;4.53;;;2.28;;
36385;SDS011;24125;47.482;8.770;2022-09-21T03:23:57;4.35;;;1.80;;
36385;SDS011;24125;47.482;8.770;2022-09-21T03:26:30;5.40;;;1.90;;
36385;SDS011;24125;47.482;8.770;2022-09-21T03:29:03;4.07;;;1.90;;
36385;SDS011;24125;47.482;8.770;2022-09-21T03:31:36;4.40;;;1.95;;
36385;SDS011;24125;47.482;8.770;2022-09-21T03:34:10;2.85;;;1.83;;
36385;SDS011;24125;47.482;8.770;2022-09-21T03:36:45;3.65;;;2.10;;
36385;SDS011;24125;47.482;8.770;2022-09-21T03:39:19;3.63;;;1.80;;
36385;SDS011;24125;47.482;8.770;2022-09-21T03:41:53;3.83;;;2.40;;
36385;SDS011;24125;47.482;8.770;2022-09-21T03:44:26;4.28;;;2.55;;
36385;SDS011;24125;47.482;8.770;2022-09-21T03:47:01;3.80;;;1.77;;
36385;SDS011;24125;47.482;8.770;2022-09-21T03:49:37;4.18;;;2.13;;
36385;SDS011;24125;47.482;8.770;2022-09-21T03:52:11;6.13;;;2.42;;
36385;SDS011;24125;47.482;8.770;2022-09-21T03:54:44;5.50;;;2.03;;
36385;SDS011;24125;47.482;8.770;2022-09-21T03:57:17;5.05;;;2.08;;
36385;SDS011;24125;47.482;8.770;2022-09-21T03:59:50;5.95;;;2.30;;
36385;SDS011;24125;47.482;8.770;2022-09-21T04:02:24;4.95;;;2.30;;
36385;SDS011;24125;47.482;8.770;2022-09-21T04:04:57;3.55;;;2.15;;
36385;SDS011;24125;47.482;8.770;2022-09-21T04:07:32;6.15;;;2.40;;
36385;SDS011;24125;47.482;8.770;2022-09-21T04:10:07;4.35;;;2.35;;
36385;SDS011;24125;47.482;8.770;2022-09-21T04:12:43;3.85;;;2.38;;
36385;SDS011;24125;47.482;8.770;2022-09-21T04:15:17;4.43;;;2.10;;
36385;SDS011;24125;47.482;8.770;2022-09-21T04:17:51;4.18;;;2.33;;
36385;SDS011;24125;47.482;8.770;2022-09-21T04:20:25;4.57;;;2.00;;
36385;SDS011;24125;47.482;8.770;2022-09-21T04:23:00;7.30;;;2.00;;
36385;SDS011;24125;47.482;8.770;2022-09-21T04:25:33;3.65;;;2.10;;
36385;SDS011;24125;47.482;8.770;2022-09-21T04:28:06;2.90;;;1.98;;
36385;SDS011;24125;47.482;8.770;2022-09-21T04:30:39;4.20;;;2.28;;
36385;SDS011;24125;47.482;8.770;2022-09-21T04:33:12;3.13;;;2.20;;
36385;SDS011;24125;47.482;8.770;2022-09-21T04:35:46;3.40;;;2.30;;
36385;SDS011;24125;47.482;8.770;2022-09-21T04:38:20;4.25;;;2.20;;
36385;SDS011;24125;47.482;8.770;2022-09-21T04:40:54;5.05;;;2.33;;
36385;SDS011;24125;47.482;8.770;2022-09-21T04:43:27;4.15;;;2.53;;
36385;SDS011;24125;47.482;8.770;2022-09-21T04:46:03;3.13;;;2.00;;
36385;SDS011;24125;47.482;8.770;2022-09-21T04:48:37;2.88;;;1.88;;
36385;SDS011;24125;47.482;8.770;2022-09-21T04:51:12;4.07;;;2.30;;
36385;SDS011;24125;47.482;8.770;2022-09-21T04:53:47;5.03;;;2.40;;
36385;SDS011;24125;47.482;8.770;2022-09-21T04:56:20;5.00;;;2.00;;
36385;SDS011;24125;47.482;8.770;2022-09-21T04:58:55;3.00;;;1.98;;
36385;SDS011;24125;47.482;8.770;2022-09-21T05:01:28;3.67;;;2.15;;
36385;SDS011;24125;47.482;8.770;2022-09-21T05:04:01;4.75;;;1.85;;
36385;SDS011;24125;47.482;8.770;2022-09-21T05:06:34;7.45;;;2.60;;
36385;SDS011;24125;47.482;8.770;2022-09-21T05:09:09;4.63;;;2.20;;
36385;SDS011;24125;47.482;8.770;2022-09-21T05:11:59;3.85;;;2.35;;
36385;SDS011;24125;47.482;8.770;2022-09-21T05:14:33;5.32;;;2.72;;
36385;SDS011;24125;47.482;8.770;2022-09-21T05:17:06;9.43;;;3.00;;
36385;SDS011;24125;47.482;8.770;2022-09-21T05:19:39;6.68;;;3.10;;
36385;SDS011;24125;47.482;8.770;2022-09-21T05:22:12;7.63;;;3.42;;
36385;SDS011;24125;47.482;8.770;2022-09-21T05:24:47;8.20;;;3.30;;
36385;SDS011;24125;47.482;8.770;2022-09-21T05:27:22;6.80;;;2.97;;
36385;SDS011;24125;47.482;8.770;2022-09-21T05:29:56;6.10;;;3.05;;
36385;SDS011;24125;47.482;8.770;2022-09-21T05:32:33;4.63;;;2.70;;
36385;SDS011;24125;47.482;8.770;2022-09-21T05:35:19;5.97;;;2.50;;
36385;SDS011;24125;47.482;8.770;2022-09-21T05:38:02;5.25;;;2.42;;
36385;SDS011;24125;47.482;8.770;2022-09-21T05:40:41;2.95;;;2.17;;
36385;SDS011;24125;47.482;8.770;2022-09-21T05:43:18;5.70;;;2.60;;
36385;SDS011;24125;47.482;8.770;2022-09-21T05:45:55;5.32;;;2.40;;
36385;SDS011;24125;47.482;8.770;2022-09-21T05:48:35;7.03;;;2.38;;
36385;SDS011;24125;47.482;8.770;2022-09-21T05:51:14;3.88;;;2.40;;
36385;SDS011;24125;47.482;8.770;2022-09-21T05:54:04;5.70;;;2.50;;
36385;SDS011;24125;47.482;8.770;2022-09-21T05:56:51;3.78;;;2.42;;
36385;SDS011;24125;47.482;8.770;2022-09-21T05:59:42;3.97;;;2.58;;
36385;SDS011;24125;47.482;8.770;2022-09-21T06:02:30;5.38;;;2.35;;
36385;SDS011;24125;47.482;8.770;2022-09-21T06:05:15;7.38;;;2.67;;
36385;SDS011;24125;47.482;8.770;2022-09-21T06:07:52;3.70;;;2.40;;
36385;SDS011;24125;47.482;8.770;2022-09-21T06:10:25;5.22;;;2.80;;
36385;SDS011;24125;47.482;8.770;2022-09-21T06:13:05;5.00;;;2.58;;
36385;SDS011;24125;47.482;8.770;2022-09-21T06:15:40;4.38;;;2.38;;
36385;SDS011;24125;47.482;8.770;2022-09-21T06:18:13;4.57;;;2.67;;
36385;SDS011;24125;47.482;8.770;2022-09-21T06:20:48;5.45;;;2.50;;
36385;SDS011;24125;47.482;8.770;2022-09-21T06:23:21;6.88;;;3.35;;
36385;SDS011;24125;47.482;8.770;2022-09-21T06:25:55;4.70;;;3.00;;
36385;SDS011;24125;47.482;8.770;2022-09-21T06:28:31;6.47;;;3.40;;
36385;SDS011;24125;47.482;8.770;2022-09-21T06:31:04;6.38;;;3.35;;
36385;SDS011;24125;47.482;8.770;2022-09-21T06:33:39;6.32;;;3.65;;
36385;SDS011;24125;47.482;8.770;2022-09-21T06:36:18;8.63;;;3.65;;
36385;SDS011;24125;47.482;8.770;2022-09-21T06:38:51;6.18;;;3.78;;
36385;SDS011;24125;47.482;8.770;2022-09-21T06:41:24;7.15;;;3.60;;
36385;SDS011;24125;47.482;8.770;2022-09-21T06:43:58;8.80;;;3.63;;
36385;SDS011;24125;47.482;8.770;2022-09-21T06:46:31;8.80;;;3.83;;
36385;SDS011;24125;47.482;8.770;2022-09-21T06:49:04;7.82;;;3.72;;
36385;SDS011;24125;47.482;8.770;2022-09-21T06:51:37;11.27;;;4.32;;
36385;SDS011;24125;47.482;8.770;2022-09-21T06:54:10;8.20;;;3.42;;
36385;SDS011;24125;47.482;8.770;2022-09-21T06:56:43;5.65;;;3.25;;
36385;SDS011;24125;47.482;8.770;2022-09-21T06:59:17;4.60;;;3.45;;
36385;SDS011;24125;47.482;8.770;2022-09-21T07:01:50;6.75;;;3.63;;
36385;SDS011;24125;47.482;8.770;2022-09-21T07:04:26;5.65;;;3.70;;
36385;SDS011;24125;47.482;8.770;2022-09-21T07:07:00;8.85;;;4.00;;
36385;SDS011;24125;47.482;8.770;2022-09-21T07:09:35;6.53;;;4.18;;
36385;SDS011;24125;47.482;8.770;2022-09-21T07:12:28;11.98;;;4.60;;
36385;SDS011;24125;47.482;8.770;2022-09-21T07:15:09;5.03;;;3.53;;
36385;SDS011;24125;47.482;8.770;2022-09-21T07:17:46;5.18;;;3.58;;
36385;SDS011;24125;47.482;8.770;2022-09-21T07:20:23;10.13;;;3.78;;
36385;SDS011;24125;47.482;8.770;2022-09-21T07:22:56;8.52;;;3.28;;
36385;SDS011;24125;47.482;8.770;2022-09-21T07:25:29;6.47;;;3.97;;
36385;SDS011;24125;47.482;8.770;2022-09-21T07:28:04;7.70;;;3.75;;
36385;SDS011;24125;47.482;8.770;2022-09-21T07:30:38;9.45;;;3.75;;
36385;SDS011;24125;47.482;8.770;2022-09-21T07:33:12;10.68;;;3.83;;
36385;SDS011;24125;47.482;8.770;2022-09-21T07:35:49;10.35;;;4.32;;
36385;SDS011;24125;47.482;8.770;2022-09-21T07:38:23;8.07;;;3.67;;
36385;SDS011;24125;47.482;8.770;2022-09-21T07:40:55;6.70;;;3.83;;
36385;SDS011;24125;47.482;8.770;2022-09-21T07:43:28;7.45;;;3.80;;
36385;SDS011;24125;47.482;8.770;2022-09-21T07:46:03;9.13;;;3.95;;
36385;SDS011;24125;47.482;8.770;2022-09-21T07:48:36;7.88;;;3.80;;
36385;SDS011;24125;47.482;8.770;2022-09-21T07:51:10;10.10;;;3.63;;
36385;SDS011;24125;47.482;8.770;2022-09-21T07:53:44;6.35;;;3.50;;
36385;SDS011;24125;47.482;8.770;2022-09-21T07:56:17;8.00;;;3.50;;
36385;SDS011;24125;47.482;8.770;2022-09-21T07:58:50;6.78;;;3.42;;
36385;SDS011;24125;47.482;8.770;2022-09-21T08:01:39;7.93;;;3.50;;
36385;SDS011;24125;47.482;8.770;2022-09-21T08:04:13;10.15;;;3.33;;
36385;SDS011;24125;47.482;8.770;2022-09-21T08:06:45;7.65;;;3.15;;
36385;SDS011;24125;47.482;8.770;2022-09-21T08:09:18;7.57;;;3.63;;
36385;SDS011;24125;47.482;8.770;2022-09-21T08:11:51;8.35;;;3.45;;
36385;SDS011;24125;47.482;8.770;2022-09-21T08:14:26;7.38;;;3.22;;
36385;SDS011;24125;47.482;8.770;2022-09-21T08:17:01;6.97;;;3.08;;
36385;SDS011;24125;47.482;8.770;2022-09-21T08:19:34;8.60;;;3.70;;
36385;SDS011;24125;47.482;8.770;2022-09-21T08:22:07;7.85;;;3.80;;
36385;SDS011;24125;47.482;8.770;2022-09-21T08:24:42;5.20;;;2.83;;
36385;SDS011;24125;47.482;8.770;2022-09-21T08:27:16;7.53;;;3.03;;
36385;SDS011;24125;47.482;8.770;2022-09-21T08:29:50;6.18;;;2.95;;
36385;SDS011;24125;47.482;8.770;2022-09-21T08:32:24;7.32;;;3.10;;
36385;SDS011;24125;47.482;8.770;2022-09-21T08:35:17;7.93;;;4.07;;
36385;SDS011;24125;47.482;8.770;2022-09-21T08:37:52;6.63;;;2.92;;
36385;SDS011;24125;47.482;8.770;2022-09-21T08:40:25;6.22;;;3.15;;
36385;SDS011;24125;47.482;8.770;2022-09-21T08:42:59;6.88;;;3.20;;
36385;SDS011;24125;47.482;8.770;2022-09-21T08:45:39;4.30;;;3.08;;
36385;SDS011;24125;47.482;8.770;2022-09-21T08:48:17;7.93;;;3.35;;
36385;SDS011;24125;47.482;8.770;2022-09-21T08:51:02;4.70;;;2.83;;
36385;SDS011;24125;47.482;8.770;2022-09-21T08:53:39;5.95;;;2.95;;
36385;SDS011;24125;47.482;8.770;2022-09-21T08:56:16;4.30;;;2.70;;
36385;SDS011;24125;47.482;8.770;2022-09-21T08:58:49;5.07;;;2.35;;
36385;SDS011;24125;47.482;8.770;2022-09-21T09:01:31;5.88;;;2.20;;
36385;SDS011;24125;47.482;8.770;2022-09-21T09:04:25;3.40;;;2.03;;
36385;SDS011;24125;47.482;8.770;2022-09-21T09:07:14;10.13;;;2.17;;
36385;SDS011;24125;47.482;8.770;2022-09-21T09:10:06;8.05;;;2.10;;
36385;SDS011;24125;47.482;8.770;2022-09-21T09:12:52;5.95;;;2.00;;
36385;SDS011;24125;47.482;8.770;2022-09-21T09:15:36;4.07;;;2.03;;
36385;SDS011;24125;47.482;8.770;2022-09-21T09:18:21;4.35;;;1.63;;
36385;SDS011;24125;47.482;8.770;2022-09-21T09:21:03;7.22;;;2.13;;
36385;SDS011;24125;47.482;8.770;2022-09-21T09:23:43;6.20;;;1.95;;
36385;SDS011;24125;47.482;8.770;2022-09-21T09:26:21;4.82;;;2.25;;
36385;SDS011;24125;47.482;8.770;2022-09-21T09:29:06;6.40;;;2.33;;
36385;SDS011;24125;47.482;8.770;2022-09-21T09:31:48;7.07;;;2.03;;
36385;SDS011;24125;47.482;8.770;2022-09-21T09:34:27;9.93;;;2.38;;
36385;SDS011;24125;47.482;8.770;2022-09-21T09:37:09;3.88;;;1.73;;
36385;SDS011;24125;47.482;8.770;2022-09-21T09:39:47;3.10;;;1.60;;
36385;SDS011;24125;47.482;8.770;2022-09-21T09:42:29;3.80;;;1.70;;
36385;SDS011;24125;47.482;8.770;2022-09-21T09:45:18;3.80;;;1.90;;
36385;SDS011;24125;47.482;8.770;2022-09-21T09:48:06;2.92;;;1.63;;
36385;SDS011;24125;47.482;8.770;2022-09-21T09:50:50;3.92;;;1.75;;
36385;SDS011;24125;47.482;8.770;2022-09-21T09:53:27;4.15;;;1.67;;
36385;SDS011;24125;47.482;8.770;2022-09-21T09:56:02;4.80;;;1.92;;
36385;SDS011;24125;47.482;8.770;2022-09-21T09:58:36;6.53;;;2.20;;
36385;SDS011;24125;47.482;8.770;2022-09-21T10:01:34;3.60;;;2.15;;
36385;SDS011;24125;47.482;8.770;2022-09-21T10:04:13;4.78;;;1.63;;
36385;SDS011;24125;47.482;8.770;2022-09-21T10:06:47;3.38;;;1.58;;
36385;SDS011;24125;47.482;8.770;2022-09-21T10:09:26;3.95;;;1.70;;
36385;SDS011;24125;47.482;8.770;2022-09-21T10:12:02;3.10;;;1.80;;
36385;SDS011;24125;47.482;8.770;2022-09-21T10:14:50;3.95;;;1.48;;
36385;SDS011;24125;47.482;8.770;2022-09-21T10:17:25;2.05;;;1.17;;
36385;SDS011;24125;47.482;8.770;2022-09-21T10:19:59;3.58;;;1.40;;
36385;SDS011;24125;47.482;8.770;2022-09-21T10:22:33;2.70;;;1.38;;
36385;SDS011;24125;47.482;8.770;2022-09-21T10:25:14;2.90;;;1.50;;
36385;SDS011;24125;47.482;8.770;2022-09-21T10:27:50;3.38;;;1.80;;
36385;SDS011;24125;47.482;8.770;2022-09-21T10:30:31;6.75;;;1.40;;
36385;SDS011;24125;47.482;8.770;2022-09-21T10:33:15;2.05;;;1.05;;
36385;SDS011;24125;47.482;8.770;2022-09-21T10:35:52;4.95;;;1.52;;
36385;SDS011;24125;47.482;8.770;2022-09-21T10:38:27;2.17;;;1.40;;
36385;SDS011;24125;47.482;8.770;2022-09-21T10:41:02;2.28;;;1.15;;
36385;SDS011;24125;47.482;8.770;2022-09-21T10:43:40;4.15;;;1.30;;
36385;SDS011;24125;47.482;8.770;2022-09-21T10:46:14;3.55;;;0.98;;
36385;SDS011;24125;47.482;8.770;2022-09-21T10:48:48;2.63;;;1.08;;
36385;SDS011;24125;47.482;8.770;2022-09-21T10:51:24;1.98;;;1.30;;
36385;SDS011;24125;47.482;8.770;2022-09-21T10:54:00;3.28;;;1.33;;
36385;SDS011;24125;47.482;8.770;2022-09-21T10:56:49;1.95;;;1.33;;
36385;SDS011;24125;47.482;8.770;2022-09-21T10:59:30;1.33;;;0.77;;
36385;SDS011;24125;47.482;8.770;2022-09-21T11:02:24;2.15;;;1.00;;
36385;SDS011;24125;47.482;8.770;2022-09-21T11:05:18;1.55;;;0.90;;
36385;SDS011;24125;47.482;8.770;2022-09-21T11:07:56;1.65;;;0.82;;
36385;SDS011;24125;47.482;8.770;2022-09-21T11:10:37;2.58;;;1.00;;
36385;SDS011;24125;47.482;8.770;2022-09-21T11:13:19;2.05;;;0.90;;
36385;SDS011;24125;47.482;8.770;2022-09-21T11:16:01;2.35;;;0.85;;
36385;SDS011;24125;47.482;8.770;2022-09-21T11:18:43;2.10;;;0.90;;
36385;SDS011;24125;47.482;8.770;2022-09-21T11:21:24;4.93;;;1.25;;
36385;SDS011;24125;47.482;8.770;2022-09-21T11:26:59;2.58;;;1.25;;
36385;SDS011;24125;47.482;8.770;2022-09-21T11:29:39;2.95;;;1.10;;
36385;SDS011;24125;47.482;8.770;2022-09-21T11:32:28;2.25;;;0.95;;
36385;SDS011;24125;47.482;8.770;2022-09-21T11:35:30;2.35;;;0.82;;
36385;SDS011;24125;47.482;8.770;2022-09-21T11:38:15;1.75;;;0.90;;
36385;SDS011;24125;47.482;8.770;2022-09-21T11:41:07;1.38;;;0.63;;
36385;SDS011;24125;47.482;8.770;2022-09-21T11:43:56;1.25;;;0.77;;
36385;SDS011;24125;47.482;8.770;2022-09-21T11:46:48;2.40;;;0.77;;
36385;SDS011;24125;47.482;8.770;2022-09-21T11:49:44;1.77;;;0.70;;
36385;SDS011;24125;47.482;8.770;2022-09-21T11:53:05;2.33;;;0.73;;
36385;SDS011;24125;47.482;8.770;2022-09-21T11:56:08;0.82;;;0.50;;
36385;SDS011;24125;47.482;8.770;2022-09-21T11:58:53;1.58;;;0.80;;
36385;SDS011;24125;47.482;8.770;2022-09-21T12:01:40;3.00;;;0.90;;
36385;SDS011;24125;47.482;8.770;2022-09-21T12:04:29;1.65;;;0.70;;
36385;SDS011;24125;47.482;8.770;2022-09-21T12:07:17;4.30;;;0.80;;
36385;SDS011;24125;47.482;8.770;2022-09-21T12:10:10;1.02;;;0.63;;
36385;SDS011;24125;47.482;8.770;2022-09-21T12:12:51;1.08;;;0.70;;
36385;SDS011;24125;47.482;8.770;2022-09-21T12:15:32;1.13;;;0.63;;
36385;SDS011;24125;47.482;8.770;2022-09-21T12:18:11;1.02;;;0.47;;
36385;SDS011;24125;47.482;8.770;2022-09-21T12:20:55;2.50;;;0.73;;
36385;SDS011;24125;47.482;8.770;2022-09-21T12:23:35;2.25;;;0.63;;
36385;SDS011;24125;47.482;8.770;2022-09-21T12:26:13;1.27;;;0.70;;
36385;SDS011;24125;47.482;8.770;2022-09-21T12:28:50;0.85;;;0.50;;
36385;SDS011;24125;47.482;8.770;2022-09-21T12:31:30;1.98;;;0.50;;
36385;SDS011;24125;47.482;8.770;2022-09-21T12:34:10;4.68;;;0.93;;
36385;SDS011;24125;47.482;8.770;2022-09-21T12:36:52;2.38;;;0.98;;
36385;SDS011;24125;47.482;8.770;2022-09-21T12:39:33;2.05;;;1.23;;
36385;SDS011;24125;47.482;8.770;2022-09-21T12:42:19;1.77;;;0.65;;
36385;SDS011;24125;47.482;8.770;2022-09-21T12:45:01;3.75;;;1.08;;
36385;SDS011;24125;47.482;8.770;2022-09-21T12:47:42;0.90;;;0.50;;
36385;SDS011;24125;47.482;8.770;2022-09-21T12:50:21;3.47;;;0.80;;
36385;SDS011;24125;47.482;8.770;2022-09-21T12:53:00;3.53;;;1.00;;
36385;SDS011;24125;47.482;8.770;2022-09-21T12:55:39;2.47;;;0.80;;
36385;SDS011;24125;47.482;8.770;2022-09-21T12:58:20;1.08;;;0.60;;
36385;SDS011;24125;47.482;8.770;2022-09-21T13:01:08;2.00;;;0.80;;
36385;SDS011;24125;47.482;8.770;2022-09-21T13:03:55;2.95;;;0.70;;
36385;SDS011;24125;47.482;8.770;2022-09-21T13:09:49;4.45;;;0.68;;
36385;SDS011;24125;47.482;8.770;2022-09-21T13:12:23;1.48;;;0.88;;
36385;SDS011;24125;47.482;8.770;2022-09-21T13:15:01;5.28;;;1.00;;
36385;SDS011;24125;47.482;8.770;2022-09-21T13:17:36;2.20;;;0.80;;
36385;SDS011;24125;47.482;8.770;2022-09-21T13:20:14;3.25;;;1.13;;
36385;SDS011;24125;47.482;8.770;2022-09-21T13:22:50;1.40;;;0.63;;
36385;SDS011;24125;47.482;8.770;2022-09-21T13:25:32;4.28;;;0.90;;
36385;SDS011;24125;47.482;8.770;2022-09-21T13:28:16;2.17;;;0.60;;
36385;SDS011;24125;47.482;8.770;2022-09-21T13:34:22;1.38;;;0.55;;
36385;SDS011;24125;47.482;8.770;2022-09-21T13:43:20;0.88;;;0.60;;
36385;SDS011;24125;47.482;8.770;2022-09-21T13:49:32;1.25;;;0.60;;
36385;SDS011;24125;47.482;8.770;2022-09-21T13:52:21;2.10;;;0.55;;
36385;SDS011;24125;47.482;8.770;2022-09-21T13:55:00;2.67;;;0.82;;
36385;SDS011;24125;47.482;8.770;2022-09-21T13:57:37;2.03;;;0.55;;
36385;SDS011;24125;47.482;8.770;2022-09-21T14:03:17;2.33;;;0.80;;
36385;SDS011;24125;47.482;8.770;2022-09-21T14:05:53;2.10;;;0.43;;
36385;SDS011;24125;47.482;8.770;2022-09-21T14:08:32;0.55;;;0.45;;
36385;SDS011;24125;47.482;8.770;2022-09-21T14:11:09;0.95;;;0.52;;
36385;SDS011;24125;47.482;8.770;2022-09-21T14:13:58;2.80;;;0.60;;
36385;SDS011;24125;47.482;8.770;2022-09-21T14:16:51;0.90;;;0.55;;
36385;SDS011;24125;47.482;8.770;2022-09-21T14:22:42;1.17;;;0.50;;
36385;SDS011;24125;47.482;8.770;2022-09-21T14:25:26;1.38;;;0.65;;
36385;SDS011;24125;47.482;8.770;2022-09-21T14:28:02;1.27;;;0.60;;
36385;SDS011;24125;47.482;8.770;2022-09-21T14:30:40;1.88;;;0.60;;
36385;SDS011;24125;47.482;8.770;2022-09-21T14:33:24;1.15;;;0.50;;
36385;SDS011;24125;47.482;8.770;2022-09-21T14:36:05;0.75;;;0.60;;
36385;SDS011;24125;47.482;8.770;2022-09-21T14:38:41;0.30;;;0.30;;
36385;SDS011;24125;47.482;8.770;2022-09-21T14:41:29;1.45;;;0.52;;
36385;SDS011;24125;47.482;8.770;2022-09-21T14:44:05;0.65;;;0.40;;
36385;SDS011;24125;47.482;8.770;2022-09-21T14:46:52;0.98;;;0.50;;
36385;SDS011;24125;47.482;8.770;2022-09-21T14:49:52;2.92;;;0.60;;
36385;SDS011;24125;47.482;8.770;2022-09-21T14:52:41;1.35;;;0.70;;
36385;SDS011;24125;47.482;8.770;2022-09-21T14:55:31;0.73;;;0.50;;
36385;SDS011;24125;47.482;8.770;2022-09-21T14:58:24;0.90;;;0.40;;
36385;SDS011;24125;47.482;8.770;2022-09-21T15:04:20;1.73;;;0.50;;
36385;SDS011;24125;47.482;8.770;2022-09-21T15:07:24;1.80;;;0.50;;
36385;SDS011;24125;47.482;8.770;2022-09-21T15:10:28;1.87;;;0.57;;
36385;SDS011;24125;47.482;8.770;2022-09-21T15:13:31;0.75;;;0.40;;
36385;SDS011;24125;47.482;8.770;2022-09-21T15:16:17;1.38;;;0.50;;
36385;SDS011;24125;47.482;8.770;2022-09-21T15:18:59;2.83;;;0.68;;
36385;SDS011;24125;47.482;8.770;2022-09-21T15:21:43;1.10;;;0.57;;
36385;SDS011;24125;47.482;8.770;2022-09-21T15:24:23;1.02;;;0.43;;
36385;SDS011;24125;47.482;8.770;2022-09-21T15:27:03;0.90;;;0.47;;
36385;SDS011;24125;47.482;8.770;2022-09-21T15:29:38;0.90;;;0.50;;
36385;SDS011;24125;47.482;8.770;2022-09-21T15:32:20;1.45;;;0.40;;
36385;SDS011;24125;47.482;8.770;2022-09-21T15:34:59;1.95;;;0.68;;
36385;SDS011;24125;47.482;8.770;2022-09-21T15:37:33;2.22;;;0.85;;
36385;SDS011;24125;47.482;8.770;2022-09-21T15:40:15;1.30;;;0.40;;
36385;SDS011;24125;47.482;8.770;2022-09-21T15:42:59;0.57;;;0.40;;
36385;SDS011;24125;47.482;8.770;2022-09-21T15:45:45;1.00;;;0.50;;
36385;SDS011;24125;47.482;8.770;2022-09-21T15:48:22;2.35;;;0.50;;
36385;SDS011;24125;47.482;8.770;2022-09-21T15:50:57;2.30;;;0.50;;
36385;SDS011;24125;47.482;8.770;2022-09-21T15:53:40;6.63;;;0.55;;
36385;SDS011;24125;47.482;8.770;2022-09-21T15:56:18;0.65;;;0.35;;
36385;SDS011;24125;47.482;8.770;2022-09-21T15:58:57;4.18;;;0.40;;
36385;SDS011;24125;47.482;8.770;2022-09-21T16:01:39;0.80;;;0.40;;
36385;SDS011;24125;47.482;8.770;2022-09-21T16:04:15;0.50;;;0.40;;
36385;SDS011;24125;47.482;8.770;2022-09-21T16:06:59;0.55;;;0.30;;
36385;SDS011;24125;47.482;8.770;2022-09-21T16:09:40;1.23;;;0.40;;
36385;SDS011;24125;47.482;8.770;2022-09-21T16:12:28;1.17;;;0.40;;
36385;SDS011;24125;47.482;8.770;2022-09-21T16:15:17;0.75;;;0.28;;
36385;SDS011;24125;47.482;8.770;2022-09-21T16:17:55;1.05;;;0.30;;
36385;SDS011;24125;47.482;8.770;2022-09-21T16:20:41;0.43;;;0.30;;
36385;SDS011;24125;47.482;8.770;2022-09-21T16:23:16;1.40;;;0.47;;
36385;SDS011;24125;47.482;8.770;2022-09-21T16:25:54;0.68;;;0.30;;
36385;SDS011;24125;47.482;8.770;2022-09-21T16:28:36;1.75;;;0.30;;